Time;durP1;ratioP1;P1;durP2;ratioP2;P2;SDS_P1;SDS_P2;PMS_P1;PMS_P2;Temp;Humidity;BMP_temperature;BMP_pressure;BME280_temperature;BME280_humidity;BME280_pressure;Samples;Min_cycle;Max_cycle;Signal;HPM_P1;HPM_P2
2023/02/24 00:01:59;;;;;;;27.08;6.38;;;;;;;2.63;100.00;100601.41;5040139;28;20570;-77
2023/02/24 00:04:30;;;;;;;21.55;4.43;;;;;;;2.75;100.00;100600.81;5035939;28;20072;-76
2023/02/24 00:06:58;;;;;;;21.33;3.60;;;;;;;2.81;100.00;100613.00;5056557;28;20556;-76
2023/02/24 00:09:28;;;;;;;20.63;3.90;;;;;;;2.76;100.00;100604.25;5039133;28;20080;-78
2023/02/24 00:12:12;;;;;;;22.75;5.88;;;;;;;2.64;100.00;100594.53;5038018;28;20137;-77
2023/02/24 00:14:42;;;;;;;11.43;3.50;;;;;;;2.56;100.00;100588.31;5038899;28;20047;-76
2023/02/24 00:17:13;;;;;;;10.20;2.50;;;;;;;2.51;100.00;100592.50;5028239;28;20041;-75
2023/02/24 00:19:39;;;;;;;13.95;3.55;;;;;;;2.47;100.00;100594.13;5045870;28;20143;-77
2023/02/24 00:22:08;;;;;;;13.52;2.75;;;;;;;2.55;100.00;100578.81;5046248;28;20044;-79
2023/02/24 00:24:36;;;;;;;15.65;3.75;;;;;;;2.66;100.00;100585.09;5041755;28;20059;-79
2023/02/24 00:27:06;;;;;;;20.67;3.20;;;;;;;2.78;100.00;100580.19;5031049;28;20044;-83
2023/02/24 00:29:36;;;;;;;15.80;4.47;;;;;;;2.88;100.00;100575.22;5061904;28;20044;-79
2023/02/24 00:32:05;;;;;;;26.42;5.70;;;;;;;2.94;100.00;100577.94;5070407;28;20048;-77
2023/02/24 00:34:35;;;;;;;15.38;3.58;;;;;;;2.92;100.00;100571.84;5089050;28;20067;-77
2023/02/24 00:37:02;;;;;;;12.65;3.35;;;;;;;2.89;100.00;100574.38;5098342;28;20046;-77
2023/02/24 00:39:32;;;;;;;19.30;3.78;;;;;;;2.85;100.00;100568.25;5063250;28;20068;-77
2023/02/24 00:42:03;;;;;;;11.40;2.83;;;;;;;2.83;100.00;100569.97;5091053;28;20063;-79
2023/02/24 00:44:39;;;;;;;18.50;3.38;;;;;;;2.83;100.00;100562.19;5073663;28;20036;-81
2023/02/24 00:47:09;;;;;;;12.70;2.72;;;;;;;2.84;100.00;100563.91;5066212;28;20045;-80
2023/02/24 00:49:40;;;;;;;18.17;3.35;;;;;;;2.89;100.00;100559.72;5064560;28;20317;-78
2023/02/24 00:52:12;;;;;;;14.07;5.18;;;;;;;2.94;100.00;100562.41;5079002;28;20119;-81
2023/02/24 00:54:43;;;;;;;16.52;3.13;;;;;;;2.98;100.00;100556.47;5076201;28;20055;-78
2023/02/24 00:57:10;;;;;;;8.85;2.65;;;;;;;3.00;100.00;100552.22;5073820;28;20036;-81
2023/02/24 00:59:38;;;;;;;16.58;2.42;;;;;;;3.02;100.00;100545.34;5075251;28;20113;-78
2023/02/24 01:02:06;;;;;;;8.15;3.10;;;;;;;3.05;100.00;100544.53;5073164;28;20127;-79
2023/02/24 01:04:34;;;;;;;23.75;3.60;;;;;;;3.06;100.00;100541.09;5076725;28;20133;-79
2023/02/24 01:07:01;;;;;;;31.02;4.40;;;;;;;3.08;100.00;100545.47;5100686;28;20056;-75
2023/02/24 01:09:33;;;;;;;12.30;3.03;;;;;;;3.10;100.00;100548.06;5078824;28;20051;-78
2023/02/24 01:12:37;;;;;;;10.40;2.58;;;;;;;3.08;100.00;100540.28;5082509;28;21034;-78
2023/02/24 01:15:07;;;;;;;8.85;2.47;;;;;;;3.11;100.00;100532.56;5081597;28;20047;-80
2023/02/24 01:17:37;;;;;;;14.80;2.85;;;;;;;3.12;100.00;100529.16;5082127;28;20101;-78
2023/02/24 01:20:14;;;;;;;10.45;3.05;;;;;;;3.11;100.00;100531.72;5079201;28;20049;-78
2023/02/24 01:22:46;;;;;;;14.07;3.53;;;;;;;3.13;100.00;100524.88;5083666;28;20126;-81
2023/02/24 01:25:12;;;;;;;11.30;3.03;;;;;;;3.13;100.00;100517.97;5077896;28;21123;-81
2023/02/24 01:27:42;;;;;;;13.23;3.40;;;;;;;3.13;100.00;100515.38;5076271;28;20094;-77
2023/02/24 01:30:14;;;;;;;10.63;2.75;;;;;;;3.10;100.00;100515.34;5080629;28;20111;-78
2023/02/24 01:32:45;;;;;;;18.13;3.72;;;;;;;3.11;100.00;100521.38;5090680;28;20510;-78
2023/02/24 01:35:13;;;;;;;20.90;3.70;;;;;;;3.10;100.00;100507.59;5069980;28;20105;-76
2023/02/24 01:37:40;;;;;;;49.67;5.57;;;;;;;3.14;100.00;100505.91;5097241;28;20059;-77
2023/02/24 01:40:16;;;;;;;15.73;3.67;;;;;;;3.09;100.00;100500.66;5082003;28;20056;-76
2023/02/24 01:42:46;;;;;;;22.00;3.28;;;;;;;3.09;100.00;100494.59;5076671;28;20048;-76
2023/02/24 01:45:21;;;;;;;21.75;2.83;;;;;;;3.06;100.00;100497.13;5074319;28;20232;-77
2023/02/24 01:47:49;;;;;;;21.83;2.88;;;;;;;3.08;100.00;100498.06;5076270;28;21419;-77
2023/02/24 01:50:20;;;;;;;10.00;2.05;;;;;;;3.12;100.00;100492.09;5078665;28;20509;-79
2023/02/24 01:52:50;;;;;;;10.25;2.92;;;;;;;3.09;100.00;100485.16;5081946;28;20109;-77
2023/02/24 01:55:27;;;;;;;17.33;4.68;;;;;;;3.10;100.00;100486.00;5077951;28;20509;-76
2023/02/24 01:57:56;;;;;;;17.75;3.03;;;;;;;3.12;100.00;100490.34;5080225;28;20124;-79
2023/02/24 02:00:36;;;;;;;14.48;3.05;;;;;;;3.10;100.00;100483.41;5076268;28;20044;-78
2023/02/24 02:03:12;;;;;;;16.70;2.67;;;;;;;3.12;100.00;100479.16;5078004;28;20047;-82
2023/02/24 02:05:44;;;;;;;13.32;2.45;;;;;;;3.11;100.00;100477.41;5073746;28;20042;-77
2023/02/24 02:08:11;;;;;;;11.68;3.00;;;;;;;3.09;100.00;100473.91;5079147;28;20055;-77
2023/02/24 02:11:53;;;;;;;13.13;2.78;;;;;;;3.06;100.00;100468.69;5078626;28;20129;-79
2023/02/24 03:16:41;;;;;;;;;;;;;;;;;;;;;
2023/02/24 03:26:53;;;;;;;;;;;;;;;2.35;100.00;100354.47;4781654;29;20067;-76
2023/02/24 03:29:58;;;;;;;6.68;1.83;;;;;;;2.28;100.00;100361.25;4893286;28;19935;-79
2023/02/24 03:33:31;;;;;;;18.75;2.28;;;;;;;2.22;100.00;100347.34;5036816;28;20069;-77
2023/02/24 03:42:35;;;;;;;9.30;1.23;;;;;;;2.35;100.00;100345.84;5024521;28;20052;-78
2023/02/24 03:45:05;;;;;;;9.30;2.70;;;;;;;2.36;100.00;100339.84;5068522;28;20039;-79
2023/02/24 03:47:33;;;;;;;2.80;1.30;;;;;;;2.39;99.13;100340.78;5090219;28;20036;-76
2023/02/24 03:50:07;;;;;;;2.45;1.15;;;;;;;2.43;98.33;100336.56;5080284;28;20040;-75
2023/02/24 03:52:47;;;;;;;14.25;1.00;;;;;;;2.47;96.86;100338.34;5081609;28;20143;-79
2023/02/24 03:55:57;;;;;;;3.58;1.25;;;;;;;2.51;97.97;100339.28;5096218;28;20048;-76
2023/02/24 03:58:47;;;;;;;6.35;1.40;;;;;;;2.54;97.25;100326.41;5094375;28;20507;-75
2023/02/24 04:01:48;;;;;;;5.47;1.30;;;;;;;2.56;96.04;100333.34;5101592;28;20043;-77
2023/02/24 04:04:42;;;;;;;9.95;2.13;;;;;;;2.57;95.97;100335.09;5096546;28;20051;-77
2023/02/24 04:07:14;;;;;;;9.50;1.48;;;;;;;2.54;95.44;100329.84;5093209;28;20067;-77
2023/02/24 04:10:20;;;;;;;5.25;1.55;;;;;;;2.53;97.04;100330.72;5082795;28;20391;-77
2023/02/24 04:12:58;;;;;;;9.05;1.70;;;;;;;2.54;96.89;100326.41;5096873;28;20139;-78
2023/02/24 04:15:42;;;;;;;10.52;1.70;;;;;;;2.49;97.15;100326.34;5094870;28;20054;-78
2023/02/24 04:18:26;;;;;;;4.70;1.90;;;;;;;2.49;97.92;100334.09;5095149;28;20129;-80
2023/02/24 04:20:55;;;;;;;10.73;1.92;;;;;;;2.47;97.53;100326.28;5098581;27;20071;-79
2023/02/24 04:23:38;;;;;;;8.95;1.67;;;;;;;2.47;98.28;100318.53;5114084;27;20513;-77
2023/02/24 04:26:06;;;;;;;6.65;1.60;;;;;;;2.50;98.25;100317.72;5094995;28;20128;-77
2023/02/24 04:28:34;;;;;;;8.65;1.50;;;;;;;2.50;98.39;100315.13;5091437;28;20051;-79
2023/02/24 04:31:15;;;;;;;9.23;2.05;;;;;;;2.49;97.82;100310.84;5096928;27;20048;-76
2023/02/24 04:33:49;;;;;;;7.05;1.42;;;;;;;2.47;97.74;100312.50;5091114;28;20155;-77
2023/02/24 04:36:17;;;;;;;5.80;2.00;;;;;;;2.44;97.33;100308.16;5094722;28;20085;-80
2023/02/24 04:38:45;;;;;;;9.88;2.03;;;;;;;2.44;97.95;100304.72;5095188;28;20505;-77
2023/02/24 04:41:19;;;;;;;6.97;2.05;;;;;;;2.41;98.48;100305.53;5094497;28;20123;-76
2023/02/24 04:43:50;;;;;;;6.45;1.65;;;;;;;2.39;98.31;100296.88;5079054;28;20039;-78
2023/02/24 04:46:19;;;;;;;5.40;1.05;;;;;;;2.39;98.84;100296.00;5111026;27;20073;-76
2023/02/24 04:48:46;;;;;;;6.32;1.25;;;;;;;2.41;98.24;100287.44;5084375;28;20066;-75
2023/02/24 04:51:13;;;;;;;3.83;1.15;;;;;;;2.42;97.96;100280.56;5099588;27;20135;-76
2023/02/24 04:53:40;;;;;;;6.45;1.20;;;;;;;2.44;97.30;100290.06;5097536;28;20059;-77
2023/02/24 04:56:10;;;;;;;6.72;1.50;;;;;;;2.44;96.33;100279.75;5100859;28;20047;-77
2023/02/24 04:58:40;;;;;;;3.83;1.17;;;;;;;2.42;95.90;100272.81;5081626;28;20043;-81
2023/02/24 05:01:13;;;;;;;9.20;1.42;;;;;;;2.43;95.65;100271.97;5102142;27;20048;-77
2023/02/24 05:03:42;;;;;;;10.00;1.65;;;;;;;2.45;95.93;100259.94;5098806;27;20134;-77
2023/02/24 05:06:20;;;;;;;6.45;3.10;;;;;;;2.41;95.90;100251.28;5101102;27;20467;-80
2023/02/24 05:08:46;;;;;;;12.10;1.98;;;;;;;2.41;95.23;100251.28;5114822;27;20040;-79
2023/02/24 05:11:17;;;;;;;5.80;1.63;;;;;;;2.40;95.95;100252.13;5098106;28;20047;-80
2023/02/24 05:13:45;;;;;;;8.07;1.10;;;;;;;2.36;96.84;100231.34;5080403;28;20054;-81
2023/02/24 05:16:19;;;;;;;16.30;2.97;;;;;;;2.40;96.76;100243.47;5097137;28;20044;-81
2023/02/24 05:18:46;;;;;;;13.23;1.42;;;;;;;2.35;96.96;100227.91;5092999;28;20048;-78
2023/02/24 05:21:34;;;;;;;12.45;2.95;;;;;;;2.33;96.46;100229.59;5095106;28;20072;-81
2023/02/24 05:24:16;;;;;;;4.68;1.38;;;;;;;2.35;96.53;100219.28;5100990;28;20039;-79
2023/02/24 05:26:57;;;;;;;8.50;1.73;;;;;;;2.31;96.93;100216.66;5100157;27;20513;-79
2023/02/24 05:29:29;;;;;;;8.50;1.20;;;;;;;2.30;95.96;100214.91;5084795;28;20444;-82
2023/02/24 05:32:02;;;;;;;8.60;2.08;;;;;;;2.28;96.18;100202.81;5082288;28;20503;-81
2023/02/24 05:34:32;;;;;;;9.68;2.05;;;;;;;2.30;96.54;100206.28;5095057;28;20038;-78
2023/02/24 05:37:03;;;;;;;8.52;1.30;;;;;;;2.35;95.38;100191.75;5083250;28;20054;-77
2023/02/24 05:39:33;;;;;;;7.47;2.08;;;;;;;2.33;94.77;100195.16;5096738;28;20055;-78
2023/02/24 05:42:10;;;;;;;2.80;1.02;;;;;;;2.33;95.51;100190.84;5086346;28;20845;-78
2023/02/24 05:44:37;;;;;;;3.40;1.45;;;;;;;2.34;94.22;100190.00;5084946;28;20443;-74
2023/02/24 05:47:06;;;;;;;4.47;1.10;;;;;;;2.31;92.44;100180.50;5083978;28;20544;-77
2023/02/24 05:49:37;;;;;;;4.15;2.42;;;;;;;2.33;92.33;100170.19;5086233;28;20496;-77
2023/02/24 05:52:34;;;;;;;5.80;1.00;;;;;;;2.34;91.14;100174.50;5102058;28;20062;-81
2023/02/24 05:55:05;;;;;;;8.90;1.20;;;;;;;2.32;90.86;100165.84;5096151;27;20362;-77
2023/02/24 05:57:35;;;;;;;7.40;1.08;;;;;;;2.34;91.03;100159.00;5101326;28;20070;-82
2023/02/24 06:02:52;;;;;;;2.33;0.68;;;;;;;2.39;88.39;100156.50;5091583;28;20043;-78
2023/02/24 06:05:26;;;;;;;1.63;0.63;;;;;;;2.37;88.69;100145.28;5098377;27;20114;-79
2023/02/24 06:08:03;;;;;;;6.15;1.10;;;;;;;2.37;87.74;100145.28;5100270;28;20054;-76
2023/02/24 06:10:33;;;;;;;5.70;1.08;;;;;;;2.34;87.50;100143.50;5088494;28;20052;-79
2023/02/24 06:13:03;;;;;;;8.90;1.38;;;;;;;2.36;87.33;100130.63;5088232;28;20067;-76
2023/02/24 06:15:32;;;;;;;3.05;0.70;;;;;;;2.40;86.84;100133.28;5105236;28;20048;-79
2023/02/24 06:18:01;;;;;;;3.28;1.27;;;;;;;2.42;86.63;100122.97;5100651;28;20044;-79
2023/02/24 06:20:31;;;;;;;3.38;0.90;;;;;;;2.37;87.72;100116.88;5097246;28;20146;-79
2023/02/24 06:23:00;;;;;;;5.00;0.80;;;;;;;2.36;87.45;100115.13;5096124;28;20044;-78
2023/02/24 06:25:28;;;;;;;1.20;0.63;;;;;;;2.31;87.89;100105.59;5090901;28;20032;-76
2023/02/24 06:28:00;;;;;;;7.20;0.63;;;;;;;2.32;88.41;100101.28;5094917;28;20134;-82
2023/02/24 06:30:27;;;;;;;4.18;0.82;;;;;;;2.31;88.15;100105.59;5100251;28;20042;-81
2023/02/24 06:32:55;;;;;;;2.10;0.52;;;;;;;2.31;87.88;100095.25;5081532;28;20039;-79
2023/02/24 06:35:21;;;;;;;5.18;0.93;;;;;;;2.35;87.65;100100.47;5101690;28;20071;-79
2023/02/24 06:37:49;;;;;;;4.43;0.88;;;;;;;2.39;87.13;100097.09;5101577;28;20047;-81
2023/02/24 06:40:15;;;;;;;5.88;0.95;;;;;;;2.40;87.40;100093.66;5098741;28;20040;-76
2023/02/24 06:42:53;;;;;;;4.95;1.45;;;;;;;2.40;88.07;100091.06;5100518;28;20098;-79
2023/02/24 06:45:20;;;;;;;4.82;2.65;;;;;;;2.40;88.16;100081.63;5101578;28;20032;-78
2023/02/24 06:47:48;;;;;;;7.72;0.55;;;;;;;2.43;87.86;100075.63;5095820;28;20478;-79
2023/02/24 06:50:18;;;;;;;2.65;1.00;;;;;;;2.39;88.21;100076.44;5093131;28;20465;-77
2023/02/24 06:52:49;;;;;;;1.20;0.60;;;;;;;2.37;88.28;100071.22;5093177;28;20482;-76
2023/02/24 06:55:26;;;;;;;3.08;0.80;;;;;;;2.42;87.69;100074.75;5112826;27;20055;-79
2023/02/24 06:58:03;;;;;;;9.25;3.13;;;;;;;2.42;87.34;100068.72;5088927;28;20079;-80
2023/02/24 07:00:39;;;;;;;3.45;1.30;;;;;;;2.43;87.50;100063.56;5092899;27;20054;-78
2023/02/24 07:03:14;;;;;;;3.83;0.65;;;;;;;2.44;87.67;100061.88;5100698;28;20043;-80
2023/02/24 07:05:53;;;;;;;1.55;0.73;;;;;;;2.46;87.10;100065.34;5105563;28;20047;-78
2023/02/24 07:08:23;;;;;;;5.25;0.73;;;;;;;2.48;86.26;100068.81;5099454;27;20067;-80
2023/02/24 07:10:58;;;;;;;3.42;0.60;;;;;;;2.43;87.39;100062.72;5087280;28;20047;-78
2023/02/24 07:13:28;;;;;;;2.95;0.90;;;;;;;2.45;86.86;100061.88;5102039;28;20528;-76
2023/02/24 07:15:56;;;;;;;9.45;1.90;;;;;;;2.47;86.81;100051.56;5096990;28;20122;-79
2023/02/24 07:18:25;;;;;;;5.65;0.60;;;;;;;2.51;86.17;100039.56;5065453;28;20105;-76
2023/02/24 07:20:52;;;;;;;3.42;0.68;;;;;;;2.48;86.02;100038.66;5083303;28;20067;-77
2023/02/24 07:23:19;;;;;;;6.10;0.90;;;;;;;2.48;86.37;100041.25;5100696;28;20484;-78
2023/02/24 07:25:46;;;;;;;5.78;1.23;;;;;;;2.46;85.93;100031.75;5104629;28;20031;-76
2023/02/24 07:28:14;;;;;;;11.55;1.50;;;;;;;2.49;85.55;100031.81;5103118;28;20112;-76
2023/02/24 07:30:42;;;;;;;8.57;1.15;;;;;;;2.55;85.34;100020.69;5083186;28;20474;-79
2023/02/24 07:33:09;;;;;;;2.03;0.82;;;;;;;2.54;84.74;100024.09;5099008;28;20568;-79
2023/02/24 07:35:35;;;;;;;5.60;1.25;;;;;;;2.53;85.41;100022.34;5099543;27;20089;-81
2023/02/24 07:38:04;;;;;;;4.88;1.40;;;;;;;2.54;84.46;100009.47;5106518;28;20041;-78
2023/02/24 07:40:33;;;;;;;4.15;0.90;;;;;;;2.59;83.86;100012.97;5120284;27;20046;-77
2023/02/24 07:43:05;;;;;;;2.97;1.15;;;;;;;2.59;84.50;100010.38;5099428;28;20527;-78
2023/02/24 07:45:31;;;;;;;6.32;1.30;;;;;;;2.62;83.91;99996.63;5115966;27;20044;-81
2023/02/24 07:48:00;;;;;;;4.85;0.90;;;;;;;2.65;83.49;99994.13;5094185;28;20501;-78
2023/02/24 07:50:31;;;;;;;6.82;1.42;;;;;;;2.62;83.90;99984.59;5105533;28;20053;-79
2023/02/24 07:52:59;;;;;;;4.82;2.20;;;;;;;2.66;83.37;99995.84;5112613;27;20123;-77
2023/02/24 07:55:30;;;;;;;3.58;0.88;;;;;;;2.69;83.48;99989.84;5098053;28;20048;-77
2023/02/24 07:57:57;;;;;;;6.25;1.30;;;;;;;2.68;83.67;99988.97;5100548;28;20127;-78
2023/02/24 08:00:27;;;;;;;5.80;2.13;;;;;;;2.75;83.65;99982.16;5101805;28;20040;-76
2023/02/24 08:02:56;;;;;;;4.78;0.88;;;;;;;2.68;83.65;99978.63;5095830;28;20028;-77
2023/02/24 08:05:24;;;;;;;5.20;0.93;;;;;;;2.68;83.54;99967.44;5105972;28;20054;-78
2023/02/24 08:07:51;;;;;;;3.85;1.27;;;;;;;2.68;84.01;99965.72;5107016;28;20755;-79
2023/02/24 08:10:24;;;;;;;2.72;0.70;;;;;;;2.69;83.91;99964.88;5100629;28;20048;-81
2023/02/24 08:13:01;;;;;;;6.15;1.20;;;;;;;2.69;83.91;99964.88;5105525;28;20036;-78
2023/02/24 08:15:32;;;;;;;6.18;1.40;;;;;;;2.70;84.39;99963.16;5105562;28;20040;-79
2023/02/24 08:18:00;;;;;;;5.72;1.15;;;;;;;2.70;83.69;99955.38;5099264;28;20063;-78
2023/02/24 08:20:34;;;;;;;4.43;0.90;;;;;;;2.75;83.76;99959.78;5108266;28;20535;-77
2023/02/24 08:23:05;;;;;;;6.80;1.25;;;;;;;2.79;83.58;99950.31;5098852;28;20089;-80
2023/02/24 08:25:35;;;;;;;7.20;1.13;;;;;;;2.74;83.61;99942.53;5098443;28;20059;-75
2023/02/24 08:28:10;;;;;;;10.10;3.05;;;;;;;2.78;83.84;99946.03;5092445;28;20071;-78
2023/02/24 08:30:44;;;;;;;6.45;0.98;;;;;;;2.73;83.97;99943.38;5100093;28;20051;-78
2023/02/24 08:33:18;;;;;;;3.03;1.75;;;;;;;2.73;84.86;99934.78;5100589;28;20048;-78
2023/02/24 08:35:44;;;;;;;13.10;2.58;;;;;;;2.74;85.17;99923.59;5093075;28;20039;-79
2023/02/24 08:38:19;;;;;;;3.03;0.77;;;;;;;2.77;85.53;99928.78;5081616;28;20123;-78
2023/02/24 08:40:57;;;;;;;2.45;0.88;;;;;;;2.73;86.15;99927.00;5100148;28;20042;-79
2023/02/24 08:43:32;;;;;;;4.47;1.10;;;;;;;2.69;86.42;99920.94;5101533;28;20040;-77
2023/02/24 08:46:24;;;;;;;3.03;1.17;;;;;;;2.65;87.92;99914.84;5102624;28;20036;-79
2023/02/24 08:48:55;;;;;;;3.35;0.93;;;;;;;2.57;89.78;99920.78;5090258;28;20138;-75
2023/02/24 08:51:28;;;;;;;6.80;1.48;;;;;;;2.51;91.24;99924.16;5103285;28;20048;-78
2023/02/24 08:54:09;;;;;;;6.28;1.17;;;;;;;2.44;93.08;99910.31;5102577;27;20043;-79
2023/02/24 08:56:42;;;;;;;3.17;0.93;;;;;;;2.31;95.28;99917.03;5091401;28;20379;-77
2023/02/24 08:59:27;;;;;;;4.78;1.35;;;;;;;2.16;97.53;99911.66;5105531;28;20036;-78
2023/02/24 09:02:17;;;;;;;4.35;1.48;;;;;;;2.12;98.74;99900.44;5103984;27;20374;-78
2023/02/24 09:04:52;;;;;;;5.13;1.33;;;;;;;2.07;100.00;99899.50;5101058;27;20043;-78
2023/02/24 09:07:34;;;;;;;9.25;2.17;;;;;;;2.03;100.00;99884.81;5109067;27;20044;-78
2023/02/24 09:10:04;;;;;;;6.45;1.60;;;;;;;2.02;100.00;99885.69;5088766;28;20047;-76
2023/02/24 09:12:30;;;;;;;7.28;1.20;;;;;;;2.03;100.00;99889.13;5084710;28;20039;-76
2023/02/24 09:15:03;;;;;;;4.22;1.00;;;;;;;1.99;100.00;99875.31;5102487;28;20039;-77
2023/02/24 09:17:48;;;;;;;4.15;2.33;;;;;;;1.96;100.00;99873.56;5115707;27;20043;-79
2023/02/24 09:23:06;;;;;;;7.85;1.45;;;;;;;1.94;100.00;99861.47;5082954;28;20043;-78
2023/02/24 09:25:43;;;;;;;7.95;1.35;;;;;;;1.95;100.00;99855.47;5104968;28;20055;-79
2023/02/24 09:28:15;;;;;;;5.43;2.42;;;;;;;2.03;100.00;99859.00;5092969;27;20051;-78
2023/02/24 09:30:53;;;;;;;4.25;1.40;;;;;;;2.04;100.00;99850.41;5103004;28;20494;-80
2023/02/24 09:33:37;;;;;;;13.98;2.38;;;;;;;2.04;100.00;99846.97;5105648;27;20066;-80
2023/02/24 09:36:28;;;;;;;;;;;;;;;1.97;100.00;99851.22;5101533;27;20044;-80
2023/02/24 09:39:09;;;;;;;11.43;2.13;;;;;;;1.93;100.00;99839.97;5104298;28;19968;-77
2023/02/24 09:44:43;;;;;;;6.13;1.75;;;;;;;1.78;100.00;99825.13;5101569;28;20505;-80
2023/02/24 09:50:44;;;;;;;5.25;1.48;;;;;;;1.83;100.00;99829.50;5083570;27;20135;-82
2023/02/24 09:53:17;;;;;;;10.23;2.03;;;;;;;1.90;100.00;99798.59;5098359;27;20032;-77
2023/02/24 09:56:02;;;;;;;3.58;1.65;;;;;;;1.90;100.00;99818.41;5100424;28;20504;-77
2023/02/24 09:58:52;;;;;;;7.03;1.80;;;;;;;1.96;100.00;99809.03;5110484;27;20046;-78
2023/02/24 10:01:41;;;;;;;7.45;1.52;;;;;;;1.96;100.00;99808.16;5101740;28;20100;-76
2023/02/24 10:04:52;;;;;;;5.35;2.58;;;;;;;1.94;100.00;99792.66;5089647;27;20413;-79
2023/02/24 10:07:40;;;;;;;4.60;1.75;;;;;;;1.84;100.00;99798.56;5101324;27;20518;-78
2023/02/24 10:10:35;;;;;;;10.52;2.40;;;;;;;1.84;100.00;99784.75;5102957;28;20039;-79
2023/02/24 10:13:28;;;;;;;5.28;1.70;;;;;;;1.84;100.00;99793.41;5102944;28;20043;-79
2023/02/24 10:15:58;;;;;;;13.25;3.83;;;;;;;1.76;100.00;99784.66;5092208;28;20039;-77
2023/02/24 10:18:59;;;;;;;8.18;2.30;;;;;;;1.74;100.00;99782.06;5094595;28;20081;-79
2023/02/24 10:21:59;;;;;;;7.95;2.15;;;;;;;1.68;100.00;99774.25;5099346;27;20047;-78
2023/02/24 10:24:35;;;;;;;6.43;2.28;;;;;;;1.56;100.00;99771.53;5105194;27;20162;-79
2023/02/24 10:27:24;;;;;;;11.45;2.35;;;;;;;1.58;100.00;99765.53;5102781;28;20043;-80
2023/02/24 10:30:09;;;;;;;5.65;1.95;;;;;;;1.59;100.00;99762.13;5106441;28;20502;-77
2023/02/24 10:32:57;;;;;;;6.63;2.28;;;;;;;1.54;100.00;99752.56;5114070;27;20050;-77
2023/02/24 10:35:25;;;;;;;5.57;1.70;;;;;;;1.49;100.00;99744.78;5087101;28;20512;-76
2023/02/24 10:37:57;;;;;;;3.00;1.75;;;;;;;1.49;100.00;99742.22;5103808;28;20051;-77
2023/02/24 10:40:42;;;;;;;7.37;1.73;;;;;;;1.56;100.00;99743.16;5108407;28;20598;-78
2023/02/24 10:43:10;;;;;;;6.55;2.60;;;;;;;1.73;100.00;99735.63;5106194;28;20070;-80
2023/02/24 10:45:43;;;;;;;4.70;1.95;;;;;;;1.87;100.00;99731.47;5090882;28;20143;-77
2023/02/24 10:48:24;;;;;;;4.60;1.92;;;;;;;2.01;100.00;99726.50;5107632;27;20047;-78
2023/02/24 10:51:07;;;;;;;7.78;1.88;;;;;;;2.02;100.00;99717.91;5105850;28;20047;-81
2023/02/24 10:53:36;;;;;;;4.05;1.52;;;;;;;1.97;100.00;99717.84;5104796;28;20454;-78
2023/02/24 10:56:25;;;;;;;1.95;1.30;;;;;;;1.88;100.00;99702.25;5104801;28;20047;-77
2023/02/24 10:59:57;;;;;;;3.15;1.35;;;;;;;1.88;100.00;99691.94;5087117;28;20040;-77
2023/02/24 11:02:31;;;;;;;1.83;1.73;;;;;;;1.89;100.00;99685.03;5029431;28;20691;-78
2023/02/24 11:05:25;;;;;;;4.43;1.70;;;;;;;1.87;100.00;99679.00;5096452;28;20113;-77
2023/02/24 11:08:14;;;;;;;2.17;1.02;;;;;;;1.88;100.00;99671.28;5071183;28;20043;-77
2023/02/24 11:10:57;;;;;;;5.03;1.10;;;;;;;1.95;100.00;99661.88;5102927;28;20044;-79
2023/02/24 11:18:51;;;;;;;7.57;1.50;;;;;;;2.12;100.00;99650.00;5094912;28;20079;-77
2023/02/24 11:21:18;;;;;;;2.92;1.65;;;;;;;2.16;100.00;99632.81;5097276;28;20043;-75
2023/02/24 11:23:54;;;;;;;2.58;0.93;;;;;;;2.18;100.00;99625.97;5113535;28;20135;-79
2023/02/24 11:26:41;;;;;;;3.50;2.45;;;;;;;2.21;100.00;99627.72;5102878;28;20096;-79
2023/02/24 11:29:46;;;;;;;2.22;1.52;;;;;;;2.23;100.00;99613.97;5103249;28;20074;-77
2023/02/24 11:32:32;;;;;;;1.45;1.02;;;;;;;2.23;100.00;99624.28;5082434;28;20506;-78
2023/02/24 11:35:22;;;;;;;2.17;1.58;;;;;;;2.24;100.00;99617.38;5101076;28;20055;-79
2023/02/24 11:38:26;;;;;;;2.08;0.90;;;;;;;2.19;100.00;99598.41;5096784;28;20048;-80
2023/02/24 11:41:05;;;;;;;0.90;0.82;;;;;;;2.14;100.00;99596.66;5077695;28;20450;-77
2023/02/24 11:43:37;;;;;;;1.75;1.10;;;;;;;2.07;100.00;99579.38;5099701;28;20036;-80
2023/02/24 11:46:13;;;;;;;3.25;1.35;;;;;;;2.04;100.00;99594.00;5097438;28;20048;-78
2023/02/24 11:48:47;;;;;;;2.78;1.20;;;;;;;2.00;100.00;99574.19;5098936;28;20053;-76
2023/02/24 11:51:23;;;;;;;1.75;1.33;;;;;;;1.95;100.00;99568.97;5100863;28;20054;-80
2023/02/24 11:53:56;;;;;;;1.40;1.17;;;;;;;1.89;100.00;99571.47;5110784;28;20047;-78
2023/02/24 11:56:32;;;;;;;5.05;1.63;;;;;;;1.88;100.00;99549.09;5094682;28;20039;-79
2023/02/24 11:59:04;;;;;;;2.17;1.10;;;;;;;1.76;100.00;99560.19;5098845;28;20036;-79
2023/02/24 12:01:39;;;;;;;1.42;1.13;;;;;;;1.74;100.00;99549.00;5097693;28;20038;-77
2023/02/24 12:04:54;;;;;;;2.22;1.73;;;;;;;1.72;100.00;99550.69;5096501;28;20083;-82
2023/02/24 12:07:26;;;;;;;;;;;;;;;1.71;100.00;99554.13;5094163;28;20040;-79
2023/02/24 12:10:21;;;;;;;3.35;1.65;;;;;;;1.75;100.00;99540.41;5098171;28;19955;-77
2023/02/24 12:13:07;;;;;;;1.27;1.13;;;;;;;1.77;100.00;99533.53;5102111;27;20046;-80
2023/02/24 12:15:59;;;;;;;3.97;1.50;;;;;;;1.77;100.00;99530.97;5100442;28;20036;-77
2023/02/24 12:18:47;;;;;;;2.13;1.30;;;;;;;1.76;100.00;99527.53;5108065;28;22030;-76
2023/02/24 12:21:29;;;;;;;0.85;0.82;;;;;;;1.79;100.00;99527.53;5104499;28;20055;-79
2023/02/24 12:23:58;;;;;;;3.53;1.90;;;;;;;1.76;100.00;99519.78;5103208;28;20028;-75
2023/02/24 12:26:41;;;;;;;1.40;1.30;;;;;;;1.77;100.00;99516.38;5103833;27;20053;-78
2023/02/24 12:29:19;;;;;;;1.48;1.38;;;;;;;1.75;100.00;99522.34;5103708;28;20060;-78
2023/02/24 12:32:14;;;;;;;1.85;1.75;;;;;;;1.73;100.00;99516.31;5104781;27;20043;-77
2023/02/24 12:35:27;;;;;;;;;;;;;;;1.72;100.00;99519.72;5107231;28;20056;-78
2023/02/24 12:38:44;;;;;;;2.28;1.98;;;;;;;1.64;100.00;99507.66;5106224;27;19951;-78
2023/02/24 12:41:37;;;;;;;1.85;1.75;;;;;;;1.59;100.00;99504.16;5120052;27;20754;-78
2023/02/24 12:44:22;;;;;;;1.83;1.73;;;;;;;1.60;100.00;99502.44;5094385;28;20086;-80
2023/02/24 12:47:05;;;;;;;2.17;1.90;;;;;;;1.52;100.00;99510.09;5104777;27;20054;-76
2023/02/24 12:50:24;;;;;;;2.22;2.00;;;;;;;1.43;100.00;99504.84;5092302;27;20143;-78
2023/02/24 12:53:50;;;;;;;2.17;2.08;;;;;;;1.39;100.00;99497.94;5105491;27;20044;-78
2023/02/24 12:56:23;;;;;;;4.25;2.15;;;;;;;1.38;100.00;99483.31;5089885;27;20039;-79
2023/02/24 12:58:56;;;;;;;2.08;1.98;;;;;;;1.30;100.00;99484.13;5121161;27;20118;-76
2023/02/24 13:01:53;;;;;;;2.90;2.67;;;;;;;1.32;100.00;99479.84;5093461;27;20147;-78
2023/02/24 13:04:26;;;;;;;2.97;2.78;;;;;;;1.35;100.00;99475.56;5101666;27;20791;-78
2023/02/24 13:07:27;;;;;;;2.75;2.55;;;;;;;1.40;100.00;99479.06;5090521;28;20912;-78
2023/02/24 13:10:21;;;;;;;4.22;2.83;;;;;;;1.31;100.00;99475.53;5098275;27;20043;-77
2023/02/24 13:13:09;;;;;;;3.13;2.00;;;;;;;1.38;100.00;99467.84;5100505;28;20634;-75
2023/02/24 13:15:36;;;;;;;2.70;2.53;;;;;;;1.43;100.00;99459.28;5077249;28;20040;-76
2023/02/24 13:18:04;;;;;;;2.92;2.75;;;;;;;1.51;100.00;99450.78;5102654;27;20070;-76
2023/02/24 13:20:37;;;;;;;5.47;3.28;;;;;;;1.54;100.00;99451.66;5102421;28;20084;-77
2023/02/24 13:23:20;;;;;;;2.85;2.65;;;;;;;1.56;100.00;99446.53;5100185;28;20038;-76
2023/02/24 13:25:53;;;;;;;3.80;3.50;;;;;;;1.57;100.00;99449.09;5105388;28;20507;-78
2023/02/24 13:28:32;;;;;;;2.65;2.45;;;;;;;1.61;100.00;99435.38;5087197;27;20060;-79
2023/02/24 13:31:06;;;;;;;2.50;2.30;;;;;;;1.64;100.00;99435.41;5087788;27;20097;-76
2023/02/24 13:33:53;;;;;;;2.50;2.40;;;;;;;1.70;100.00;99426.00;5103764;27;20537;-79
2023/02/24 13:36:28;;;;;;;2.97;2.78;;;;;;;1.74;100.00;99422.59;5086807;28;20067;-78
2023/02/24 13:39:07;;;;;;;4.55;2.92;;;;;;;1.77;100.00;99417.44;5100606;28;20123;-76
2023/02/24 13:41:40;;;;;;;3.10;2.83;;;;;;;1.77;100.00;99415.72;5080836;28;20040;-76
2023/02/24 13:44:21;;;;;;;3.33;3.08;;;;;;;1.81;100.00;99421.75;5084982;27;20147;-76
2023/02/24 13:47:33;;;;;;;5.00;3.45;;;;;;;1.83;100.00;99409.75;5095467;27;20038;-79
2023/02/24 13:50:30;;;;;;;3.38;3.17;;;;;;;1.93;100.00;99414.09;5103516;27;20031;-78
2023/02/24 13:53:43;;;;;;;2.35;2.25;;;;;;;2.05;100.00;99399.56;5116230;27;20144;-78
2023/02/24 13:56:34;;;;;;;3.40;3.20;;;;;;;2.11;100.00;99392.69;5099965;27;20601;-79